sensor_id;sensor_type;location;lat;lon;timestamp;P1;durP1;ratioP1;P2;durP2;ratioP2
18190;SDS011;47004;51.366;12.348;2023-05-10T00:01:53;4.93;;;3.00;;
18190;SDS011;47004;51.366;12.348;2023-05-10T00:03:55;4.20;;;2.77;;
18190;SDS011;47004;51.366;12.348;2023-05-10T00:05:58;5.70;;;2.87;;
18190;SDS011;47004;51.366;12.348;2023-05-10T00:08:00;3.83;;;2.87;;
18190;SDS011;47004;51.366;12.348;2023-05-10T00:10:02;6.80;;;2.93;;
18190;SDS011;47004;51.366;12.348;2023-05-10T00:12:05;4.37;;;2.57;;
18190;SDS011;47004;51.366;12.348;2023-05-10T00:14:07;3.93;;;2.70;;
18190;SDS011;47004;51.366;12.348;2023-05-10T00:16:09;4.80;;;2.93;;
18190;SDS011;47004;51.366;12.348;2023-05-10T00:18:12;4.97;;;2.70;;
18190;SDS011;47004;51.366;12.348;2023-05-10T00:20:14;5.03;;;3.10;;
18190;SDS011;47004;51.366;12.348;2023-05-10T00:22:17;3.50;;;3.00;;
18190;SDS011;47004;51.366;12.348;2023-05-10T00:24:19;5.63;;;2.77;;
18190;SDS011;47004;51.366;12.348;2023-05-10T00:26:21;3.77;;;2.80;;
18190;SDS011;47004;51.366;12.348;2023-05-10T00:28:23;5.73;;;3.47;;
18190;SDS011;47004;51.366;12.348;2023-05-10T00:30:25;4.83;;;2.90;;
18190;SDS011;47004;51.366;12.348;2023-05-10T00:32:26;3.83;;;2.70;;
18190;SDS011;47004;51.366;12.348;2023-05-10T00:34:28;4.73;;;3.20;;
18190;SDS011;47004;51.366;12.348;2023-05-10T00:36:30;3.97;;;2.90;;
18190;SDS011;47004;51.366;12.348;2023-05-10T00:38:34;3.77;;;2.70;;
18190;SDS011;47004;51.366;12.348;2023-05-10T00:40:36;5.00;;;3.00;;
18190;SDS011;47004;51.366;12.348;2023-05-10T00:42:38;6.00;;;3.30;;
18190;SDS011;47004;51.366;12.348;2023-05-10T00:44:40;5.03;;;3.20;;
18190;SDS011;47004;51.366;12.348;2023-05-10T00:46:42;3.97;;;2.27;;
18190;SDS011;47004;51.366;12.348;2023-05-10T00:48:44;5.03;;;2.97;;
18190;SDS011;47004;51.366;12.348;2023-05-10T00:50:46;4.40;;;2.73;;
18190;SDS011;47004;51.366;12.348;2023-05-10T00:52:48;3.70;;;2.80;;
18190;SDS011;47004;51.366;12.348;2023-05-10T00:54:52;4.20;;;2.73;;
18190;SDS011;47004;51.366;12.348;2023-05-10T00:56:55;3.27;;;2.57;;
18190;SDS011;47004;51.366;12.348;2023-05-10T00:58:57;5.57;;;3.20;;
18190;SDS011;47004;51.366;12.348;2023-05-10T01:00:59;3.70;;;2.73;;
18190;SDS011;47004;51.366;12.348;2023-05-10T01:03:02;4.30;;;3.03;;
18190;SDS011;47004;51.366;12.348;2023-05-10T01:05:05;3.83;;;2.97;;
18190;SDS011;47004;51.366;12.348;2023-05-10T01:07:07;3.77;;;2.57;;
18190;SDS011;47004;51.366;12.348;2023-05-10T01:09:09;4.70;;;2.80;;
18190;SDS011;47004;51.366;12.348;2023-05-10T01:11:13;3.90;;;2.80;;
18190;SDS011;47004;51.366;12.348;2023-05-10T01:13:16;4.77;;;2.73;;
18190;SDS011;47004;51.366;12.348;2023-05-10T01:15:27;4.67;;;3.20;;
18190;SDS011;47004;51.366;12.348;2023-05-10T01:17:29;3.77;;;3.03;;
18190;SDS011;47004;51.366;12.348;2023-05-10T01:19:32;5.73;;;3.30;;
18190;SDS011;47004;51.366;12.348;2023-05-10T01:21:38;4.10;;;3.10;;
18190;SDS011;47004;51.366;12.348;2023-05-10T01:23:58;4.23;;;2.90;;
18190;SDS011;47004;51.366;12.348;2023-05-10T01:26:22;5.20;;;3.03;;
18190;SDS011;47004;51.366;12.348;2023-05-10T01:28:52;6.67;;;3.23;;
18190;SDS011;47004;51.366;12.348;2023-05-10T01:31:27;4.57;;;2.90;;
18190;SDS011;47004;51.366;12.348;2023-05-10T01:33:44;4.73;;;2.57;;
18190;SDS011;47004;51.366;12.348;2023-05-10T01:35:55;5.47;;;3.10;;
18190;SDS011;47004;51.366;12.348;2023-05-10T01:38:04;5.13;;;2.70;;
18190;SDS011;47004;51.366;12.348;2023-05-10T01:40:17;4.37;;;2.80;;
18190;SDS011;47004;51.366;12.348;2023-05-10T01:42:28;4.80;;;2.87;;
18190;SDS011;47004;51.366;12.348;2023-05-10T01:44:39;4.40;;;3.00;;
18190;SDS011;47004;51.366;12.348;2023-05-10T01:46:44;6.03;;;3.17;;
18190;SDS011;47004;51.366;12.348;2023-05-10T01:48:55;4.43;;;2.93;;
18190;SDS011;47004;51.366;12.348;2023-05-10T01:51:01;4.67;;;3.13;;
18190;SDS011;47004;51.366;12.348;2023-05-10T01:53:04;4.17;;;2.90;;
18190;SDS011;47004;51.366;12.348;2023-05-10T01:55:09;4.77;;;3.10;;
18190;SDS011;47004;51.366;12.348;2023-05-10T01:57:16;4.30;;;3.30;;
18190;SDS011;47004;51.366;12.348;2023-05-10T01:59:20;4.80;;;3.47;;
18190;SDS011;47004;51.366;12.348;2023-05-10T02:01:25;5.73;;;2.90;;
18190;SDS011;47004;51.366;12.348;2023-05-10T02:03:28;5.20;;;2.63;;
18190;SDS011;47004;51.366;12.348;2023-05-10T02:05:33;3.40;;;2.40;;
18190;SDS011;47004;51.366;12.348;2023-05-10T02:07:36;4.47;;;3.03;;
18190;SDS011;47004;51.366;12.348;2023-05-10T02:09:38;4.80;;;2.73;;
18190;SDS011;47004;51.366;12.348;2023-05-10T02:13:44;4.27;;;3.10;;
18190;SDS011;47004;51.366;12.348;2023-05-10T02:15:49;4.70;;;3.00;;
18190;SDS011;47004;51.366;12.348;2023-05-10T02:17:52;5.03;;;3.23;;
18190;SDS011;47004;51.366;12.348;2023-05-10T02:19:56;4.50;;;3.13;;
18190;SDS011;47004;51.366;12.348;2023-05-10T02:22:01;3.73;;;2.73;;
18190;SDS011;47004;51.366;12.348;2023-05-10T02:24:03;4.80;;;2.90;;
18190;SDS011;47004;51.366;12.348;2023-05-10T02:26:07;4.57;;;3.10;;
18190;SDS011;47004;51.366;12.348;2023-05-10T02:28:10;4.67;;;2.80;;
18190;SDS011;47004;51.366;12.348;2023-05-10T02:30:14;3.90;;;2.90;;
18190;SDS011;47004;51.366;12.348;2023-05-10T02:32:17;4.30;;;2.87;;
18190;SDS011;47004;51.366;12.348;2023-05-10T02:34:20;4.47;;;2.73;;
18190;SDS011;47004;51.366;12.348;2023-05-10T02:36:24;4.10;;;2.87;;
18190;SDS011;47004;51.366;12.348;2023-05-10T02:38:29;5.03;;;3.30;;
18190;SDS011;47004;51.366;12.348;2023-05-10T02:40:32;5.07;;;3.30;;
18190;SDS011;47004;51.366;12.348;2023-05-10T02:42:36;4.00;;;2.83;;
18190;SDS011;47004;51.366;12.348;2023-05-10T02:44:40;5.50;;;2.87;;
18190;SDS011;47004;51.366;12.348;2023-05-10T02:46:43;4.20;;;2.97;;
18190;SDS011;47004;51.366;12.348;2023-05-10T02:48:45;5.37;;;3.30;;
18190;SDS011;47004;51.366;12.348;2023-05-10T02:50:47;4.30;;;3.00;;
18190;SDS011;47004;51.366;12.348;2023-05-10T02:52:54;3.67;;;2.70;;
18190;SDS011;47004;51.366;12.348;2023-05-10T02:55:04;4.63;;;2.90;;
18190;SDS011;47004;51.366;12.348;2023-05-10T02:57:10;5.43;;;2.80;;
18190;SDS011;47004;51.366;12.348;2023-05-10T02:59:18;4.37;;;3.13;;
18190;SDS011;47004;51.366;12.348;2023-05-10T03:01:20;4.73;;;2.90;;
18190;SDS011;47004;51.366;12.348;2023-05-10T03:03:22;6.30;;;2.90;;
18190;SDS011;47004;51.366;12.348;2023-05-10T03:05:24;4.90;;;2.90;;
18190;SDS011;47004;51.366;12.348;2023-05-10T03:07:26;5.00;;;2.93;;
18190;SDS011;47004;51.366;12.348;2023-05-10T03:09:28;4.77;;;3.03;;
18190;SDS011;47004;51.366;12.348;2023-05-10T03:11:38;4.43;;;2.90;;
18190;SDS011;47004;51.366;12.348;2023-05-10T03:13:48;5.23;;;2.87;;
18190;SDS011;47004;51.366;12.348;2023-05-10T03:15:58;4.23;;;3.00;;
18190;SDS011;47004;51.366;12.348;2023-05-10T03:18:09;4.23;;;3.10;;
18190;SDS011;47004;51.366;12.348;2023-05-10T03:20:16;3.83;;;2.60;;
18190;SDS011;47004;51.366;12.348;2023-05-10T03:22:24;4.93;;;3.00;;
18190;SDS011;47004;51.366;12.348;2023-05-10T03:24:30;4.57;;;3.03;;
18190;SDS011;47004;51.366;12.348;2023-05-10T03:26:35;4.63;;;2.97;;
18190;SDS011;47004;51.366;12.348;2023-05-10T03:28:40;8.80;;;3.10;;
18190;SDS011;47004;51.366;12.348;2023-05-10T03:30:42;4.93;;;3.17;;
18190;SDS011;47004;51.366;12.348;2023-05-10T03:32:46;6.40;;;3.40;;
18190;SDS011;47004;51.366;12.348;2023-05-10T03:34:47;6.43;;;3.20;;
18190;SDS011;47004;51.366;12.348;2023-05-10T03:36:49;4.10;;;2.90;;
18190;SDS011;47004;51.366;12.348;2023-05-10T03:38:51;6.47;;;3.47;;
18190;SDS011;47004;51.366;12.348;2023-05-10T03:40:53;5.60;;;3.20;;
18190;SDS011;47004;51.366;12.348;2023-05-10T03:42:57;4.60;;;3.10;;
18190;SDS011;47004;51.366;12.348;2023-05-10T03:44:59;5.17;;;3.03;;
18190;SDS011;47004;51.366;12.348;2023-05-10T03:47:01;5.90;;;3.00;;
18190;SDS011;47004;51.366;12.348;2023-05-10T03:49:03;4.63;;;2.90;;
18190;SDS011;47004;51.366;12.348;2023-05-10T03:51:05;4.17;;;2.87;;
18190;SDS011;47004;51.366;12.348;2023-05-10T03:53:07;4.73;;;3.00;;
18190;SDS011;47004;51.366;12.348;2023-05-10T03:55:09;4.20;;;2.90;;
18190;SDS011;47004;51.366;12.348;2023-05-10T03:57:12;6.90;;;3.07;;
18190;SDS011;47004;51.366;12.348;2023-05-10T03:59:15;3.80;;;3.00;;
18190;SDS011;47004;51.366;12.348;2023-05-10T04:01:17;5.37;;;2.70;;
18190;SDS011;47004;51.366;12.348;2023-05-10T04:03:19;6.67;;;2.93;;
18190;SDS011;47004;51.366;12.348;2023-05-10T04:05:21;4.27;;;3.00;;
18190;SDS011;47004;51.366;12.348;2023-05-10T04:07:23;5.40;;;3.30;;
18190;SDS011;47004;51.366;12.348;2023-05-10T04:09:25;5.90;;;3.10;;
18190;SDS011;47004;51.366;12.348;2023-05-10T04:11:27;3.93;;;2.83;;
18190;SDS011;47004;51.366;12.348;2023-05-10T04:13:29;3.90;;;2.67;;
18190;SDS011;47004;51.366;12.348;2023-05-10T04:15:32;3.80;;;2.63;;
18190;SDS011;47004;51.366;12.348;2023-05-10T04:17:35;4.67;;;3.00;;
18190;SDS011;47004;51.366;12.348;2023-05-10T04:19:37;6.97;;;3.17;;
18190;SDS011;47004;51.366;12.348;2023-05-10T04:21:39;4.77;;;3.60;;
18190;SDS011;47004;51.366;12.348;2023-05-10T04:23:41;4.90;;;2.93;;
18190;SDS011;47004;51.366;12.348;2023-05-10T04:25:43;4.53;;;3.03;;
18190;SDS011;47004;51.366;12.348;2023-05-10T04:27:45;5.17;;;3.17;;
18190;SDS011;47004;51.366;12.348;2023-05-10T04:29:47;4.60;;;3.10;;
18190;SDS011;47004;51.366;12.348;2023-05-10T04:31:52;4.67;;;3.13;;
18190;SDS011;47004;51.366;12.348;2023-05-10T04:33:54;5.90;;;3.37;;
18190;SDS011;47004;51.366;12.348;2023-05-10T04:35:56;4.10;;;3.00;;
18190;SDS011;47004;51.366;12.348;2023-05-10T04:37:58;5.53;;;3.13;;
18190;SDS011;47004;51.366;12.348;2023-05-10T04:40:00;5.57;;;3.33;;
18190;SDS011;47004;51.366;12.348;2023-05-10T04:42:03;3.73;;;2.80;;
18190;SDS011;47004;51.366;12.348;2023-05-10T04:44:05;4.37;;;3.10;;
18190;SDS011;47004;51.366;12.348;2023-05-10T04:46:09;4.33;;;3.00;;
18190;SDS011;47004;51.366;12.348;2023-05-10T04:48:15;3.93;;;2.80;;
18190;SDS011;47004;51.366;12.348;2023-05-10T04:50:17;7.20;;;3.30;;
18190;SDS011;47004;51.366;12.348;2023-05-10T04:52:19;5.33;;;2.77;;
18190;SDS011;47004;51.366;12.348;2023-05-10T04:54:20;4.03;;;2.67;;
18190;SDS011;47004;51.366;12.348;2023-05-10T04:56:23;3.77;;;2.53;;
18190;SDS011;47004;51.366;12.348;2023-05-10T04:58:24;3.70;;;2.50;;
18190;SDS011;47004;51.366;12.348;2023-05-10T05:00:26;4.70;;;2.60;;
18190;SDS011;47004;51.366;12.348;2023-05-10T05:02:28;5.97;;;3.33;;
18190;SDS011;47004;51.366;12.348;2023-05-10T05:04:32;6.33;;;3.40;;
18190;SDS011;47004;51.366;12.348;2023-05-10T05:06:34;4.17;;;2.97;;
18190;SDS011;47004;51.366;12.348;2023-05-10T05:08:36;5.43;;;3.17;;
18190;SDS011;47004;51.366;12.348;2023-05-10T05:10:38;8.23;;;4.80;;
18190;SDS011;47004;51.366;12.348;2023-05-10T05:12:39;6.63;;;3.83;;
18190;SDS011;47004;51.366;12.348;2023-05-10T05:14:42;8.53;;;4.60;;
18190;SDS011;47004;51.366;12.348;2023-05-10T05:16:43;7.73;;;4.83;;
18190;SDS011;47004;51.366;12.348;2023-05-10T05:18:46;9.23;;;4.83;;
18190;SDS011;47004;51.366;12.348;2023-05-10T05:20:49;8.50;;;4.83;;
18190;SDS011;47004;51.366;12.348;2023-05-10T05:22:51;9.13;;;4.47;;
18190;SDS011;47004;51.366;12.348;2023-05-10T05:24:53;7.73;;;4.53;;
18190;SDS011;47004;51.366;12.348;2023-05-10T05:26:55;6.57;;;4.30;;
18190;SDS011;47004;51.366;12.348;2023-05-10T05:28:57;9.70;;;4.03;;
18190;SDS011;47004;51.366;12.348;2023-05-10T05:30:59;13.67;;;4.40;;
18190;SDS011;47004;51.366;12.348;2023-05-10T05:33:03;6.77;;;3.50;;
18190;SDS011;47004;51.366;12.348;2023-05-10T05:35:08;5.57;;;3.47;;
18190;SDS011;47004;51.366;12.348;2023-05-10T05:37:13;5.30;;;3.47;;
18190;SDS011;47004;51.366;12.348;2023-05-10T05:39:16;7.33;;;3.37;;
18190;SDS011;47004;51.366;12.348;2023-05-10T05:41:18;4.80;;;2.90;;
18190;SDS011;47004;51.366;12.348;2023-05-10T05:43:21;7.53;;;4.13;;
18190;SDS011;47004;51.366;12.348;2023-05-10T05:45:23;6.87;;;3.50;;
18190;SDS011;47004;51.366;12.348;2023-05-10T05:47:25;7.53;;;3.40;;
18190;SDS011;47004;51.366;12.348;2023-05-10T05:49:30;6.77;;;3.30;;
18190;SDS011;47004;51.366;12.348;2023-05-10T05:51:32;4.63;;;2.73;;
18190;SDS011;47004;51.366;12.348;2023-05-10T05:53:37;4.67;;;3.03;;
18190;SDS011;47004;51.366;12.348;2023-05-10T05:55:39;4.17;;;2.80;;
18190;SDS011;47004;51.366;12.348;2023-05-10T05:57:40;6.27;;;3.13;;
18190;SDS011;47004;51.366;12.348;2023-05-10T05:59:42;5.00;;;3.20;;
18190;SDS011;47004;51.366;12.348;2023-05-10T06:01:45;4.37;;;2.57;;
18190;SDS011;47004;51.366;12.348;2023-05-10T06:03:47;5.30;;;3.03;;
18190;SDS011;47004;51.366;12.348;2023-05-10T06:05:49;3.93;;;2.73;;
18190;SDS011;47004;51.366;12.348;2023-05-10T06:07:51;4.27;;;2.70;;
18190;SDS011;47004;51.366;12.348;2023-05-10T06:09:55;3.60;;;2.60;;
18190;SDS011;47004;51.366;12.348;2023-05-10T06:11:56;4.53;;;3.00;;
18190;SDS011;47004;51.366;12.348;2023-05-10T06:13:58;3.80;;;2.90;;
18190;SDS011;47004;51.366;12.348;2023-05-10T06:16:00;3.47;;;2.40;;
18190;SDS011;47004;51.366;12.348;2023-05-10T06:18:06;4.47;;;2.67;;
18190;SDS011;47004;51.366;12.348;2023-05-10T06:20:08;6.27;;;2.80;;
18190;SDS011;47004;51.366;12.348;2023-05-10T06:22:11;4.87;;;2.97;;
18190;SDS011;47004;51.366;12.348;2023-05-10T06:24:13;5.93;;;3.20;;
18190;SDS011;47004;51.366;12.348;2023-05-10T06:26:16;5.47;;;2.77;;
18190;SDS011;47004;51.366;12.348;2023-05-10T06:28:18;3.37;;;2.33;;
18190;SDS011;47004;51.366;12.348;2023-05-10T06:30:20;5.47;;;2.40;;
18190;SDS011;47004;51.366;12.348;2023-05-10T06:32:27;4.93;;;2.33;;
18190;SDS011;47004;51.366;12.348;2023-05-10T06:34:29;4.63;;;2.73;;
18190;SDS011;47004;51.366;12.348;2023-05-10T06:36:31;5.27;;;2.43;;
18190;SDS011;47004;51.366;12.348;2023-05-10T06:38:33;3.67;;;2.40;;
18190;SDS011;47004;51.366;12.348;2023-05-10T06:40:35;3.93;;;2.73;;
18190;SDS011;47004;51.366;12.348;2023-05-10T06:42:39;4.73;;;2.90;;
18190;SDS011;47004;51.366;12.348;2023-05-10T06:44:41;5.00;;;2.90;;
18190;SDS011;47004;51.366;12.348;2023-05-10T06:46:43;5.03;;;3.10;;
18190;SDS011;47004;51.366;12.348;2023-05-10T06:48:45;4.13;;;2.87;;
18190;SDS011;47004;51.366;12.348;2023-05-10T06:50:47;8.27;;;3.10;;
18190;SDS011;47004;51.366;12.348;2023-05-10T06:52:49;3.77;;;2.70;;
18190;SDS011;47004;51.366;12.348;2023-05-10T06:54:53;3.97;;;2.83;;
18190;SDS011;47004;51.366;12.348;2023-05-10T06:56:55;5.40;;;2.67;;
18190;SDS011;47004;51.366;12.348;2023-05-10T06:58:58;3.33;;;2.30;;
18190;SDS011;47004;51.366;12.348;2023-05-10T07:01:03;4.67;;;2.43;;
18190;SDS011;47004;51.366;12.348;2023-05-10T07:03:05;7.07;;;2.73;;
18190;SDS011;47004;51.366;12.348;2023-05-10T07:05:07;7.07;;;2.67;;
18190;SDS011;47004;51.366;12.348;2023-05-10T07:07:10;4.17;;;2.60;;
18190;SDS011;47004;51.366;12.348;2023-05-10T07:09:12;4.03;;;2.70;;
18190;SDS011;47004;51.366;12.348;2023-05-10T07:11:14;5.00;;;2.97;;
18190;SDS011;47004;51.366;12.348;2023-05-10T07:13:16;5.57;;;2.93;;
18190;SDS011;47004;51.366;12.348;2023-05-10T07:15:20;4.60;;;2.90;;
18190;SDS011;47004;51.366;12.348;2023-05-10T07:17:22;5.97;;;3.03;;
18190;SDS011;47004;51.366;12.348;2023-05-10T07:19:24;5.30;;;2.70;;
18190;SDS011;47004;51.366;12.348;2023-05-10T07:21:26;4.80;;;2.60;;
18190;SDS011;47004;51.366;12.348;2023-05-10T07:23:29;5.07;;;2.70;;
18190;SDS011;47004;51.366;12.348;2023-05-10T07:25:31;5.77;;;2.83;;
18190;SDS011;47004;51.366;12.348;2023-05-10T07:27:36;4.37;;;2.63;;
18190;SDS011;47004;51.366;12.348;2023-05-10T07:29:40;4.03;;;2.63;;
18190;SDS011;47004;51.366;12.348;2023-05-10T07:31:43;8.60;;;2.73;;
18190;SDS011;47004;51.366;12.348;2023-05-10T07:33:45;4.37;;;3.17;;
18190;SDS011;47004;51.366;12.348;2023-05-10T07:35:47;10.53;;;3.17;;
18190;SDS011;47004;51.366;12.348;2023-05-10T07:37:49;10.67;;;3.13;;
18190;SDS011;47004;51.366;12.348;2023-05-10T07:39:51;5.40;;;3.23;;
18190;SDS011;47004;51.366;12.348;2023-05-10T07:41:53;5.27;;;2.40;;
18190;SDS011;47004;51.366;12.348;2023-05-10T07:43:58;5.03;;;3.20;;
18190;SDS011;47004;51.366;12.348;2023-05-10T07:46:03;3.87;;;3.03;;
18190;SDS011;47004;51.366;12.348;2023-05-10T07:48:06;4.57;;;2.77;;
18190;SDS011;47004;51.366;12.348;2023-05-10T07:50:08;5.67;;;2.83;;
18190;SDS011;47004;51.366;12.348;2023-05-10T07:52:13;5.27;;;3.03;;
18190;SDS011;47004;51.366;12.348;2023-05-10T07:54:15;4.87;;;3.03;;
18190;SDS011;47004;51.366;12.348;2023-05-10T07:56:21;4.40;;;3.03;;
18190;SDS011;47004;51.366;12.348;2023-05-10T07:58:25;3.97;;;3.13;;
18190;SDS011;47004;51.366;12.348;2023-05-10T08:00:27;5.77;;;3.00;;
18190;SDS011;47004;51.366;12.348;2023-05-10T08:02:29;5.63;;;3.10;;
18190;SDS011;47004;51.366;12.348;2023-05-10T08:04:32;6.33;;;2.93;;
18190;SDS011;47004;51.366;12.348;2023-05-10T08:06:34;3.77;;;2.63;;
18190;SDS011;47004;51.366;12.348;2023-05-10T08:08:36;5.27;;;3.20;;
18190;SDS011;47004;51.366;12.348;2023-05-10T08:10:38;6.93;;;2.97;;
18190;SDS011;47004;51.366;12.348;2023-05-10T08:12:42;4.43;;;2.87;;
18190;SDS011;47004;51.366;12.348;2023-05-10T08:14:44;5.73;;;3.40;;
18190;SDS011;47004;51.366;12.348;2023-05-10T08:16:46;4.37;;;3.00;;
18190;SDS011;47004;51.366;12.348;2023-05-10T08:18:48;5.67;;;3.00;;
18190;SDS011;47004;51.366;12.348;2023-05-10T08:20:52;6.33;;;3.00;;
18190;SDS011;47004;51.366;12.348;2023-05-10T08:22:54;4.00;;;2.83;;
18190;SDS011;47004;51.366;12.348;2023-05-10T08:24:56;4.80;;;2.90;;
18190;SDS011;47004;51.366;12.348;2023-05-10T08:26:58;5.83;;;2.97;;
18190;SDS011;47004;51.366;12.348;2023-05-10T08:28:59;5.27;;;3.13;;
18190;SDS011;47004;51.366;12.348;2023-05-10T08:31:01;5.53;;;3.40;;
18190;SDS011;47004;51.366;12.348;2023-05-10T08:33:05;5.37;;;2.77;;
18190;SDS011;47004;51.366;12.348;2023-05-10T08:35:07;5.03;;;3.10;;
18190;SDS011;47004;51.366;12.348;2023-05-10T08:37:10;7.17;;;3.20;;
18190;SDS011;47004;51.366;12.348;2023-05-10T08:39:13;6.33;;;2.90;;
18190;SDS011;47004;51.366;12.348;2023-05-10T08:41:15;4.30;;;3.03;;
18190;SDS011;47004;51.366;12.348;2023-05-10T08:43:17;4.80;;;3.00;;
18190;SDS011;47004;51.366;12.348;2023-05-10T08:45:20;5.53;;;3.57;;
18190;SDS011;47004;51.366;12.348;2023-05-10T08:47:24;5.50;;;2.97;;
18190;SDS011;47004;51.366;12.348;2023-05-10T08:49:27;5.73;;;3.07;;
18190;SDS011;47004;51.366;12.348;2023-05-10T08:51:34;6.63;;;3.20;;
18190;SDS011;47004;51.366;12.348;2023-05-10T08:53:39;5.40;;;2.97;;
18190;SDS011;47004;51.366;12.348;2023-05-10T08:55:41;6.93;;;2.90;;
18190;SDS011;47004;51.366;12.348;2023-05-10T08:57:47;4.13;;;3.00;;
18190;SDS011;47004;51.366;12.348;2023-05-10T08:59:49;4.57;;;3.23;;
18190;SDS011;47004;51.366;12.348;2023-05-10T09:01:51;6.23;;;3.50;;
18190;SDS011;47004;51.366;12.348;2023-05-10T09:03:55;5.43;;;3.00;;
18190;SDS011;47004;51.366;12.348;2023-05-10T09:05:57;4.10;;;3.30;;
18190;SDS011;47004;51.366;12.348;2023-05-10T09:07:59;5.33;;;3.33;;
18190;SDS011;47004;51.366;12.348;2023-05-10T09:10:03;6.00;;;3.30;;
18190;SDS011;47004;51.366;12.348;2023-05-10T09:12:06;4.30;;;3.37;;
18190;SDS011;47004;51.366;12.348;2023-05-10T09:14:12;6.93;;;3.93;;
18190;SDS011;47004;51.366;12.348;2023-05-10T09:16:14;7.03;;;3.67;;
18190;SDS011;47004;51.366;12.348;2023-05-10T09:18:16;5.17;;;3.70;;
18190;SDS011;47004;51.366;12.348;2023-05-10T09:20:18;6.20;;;3.97;;
18190;SDS011;47004;51.366;12.348;2023-05-10T09:22:20;6.97;;;3.70;;
18190;SDS011;47004;51.366;12.348;2023-05-10T09:24:24;5.33;;;3.73;;
18190;SDS011;47004;51.366;12.348;2023-05-10T09:26:34;7.40;;;3.87;;
18190;SDS011;47004;51.366;12.348;2023-05-10T09:28:49;6.87;;;3.93;;
18190;SDS011;47004;51.366;12.348;2023-05-10T09:30:55;7.50;;;3.90;;
18190;SDS011;47004;51.366;12.348;2023-05-10T09:32:58;7.07;;;4.30;;
18190;SDS011;47004;51.366;12.348;2023-05-10T09:35:05;5.87;;;4.17;;
18190;SDS011;47004;51.366;12.348;2023-05-10T09:37:08;7.33;;;4.40;;
18190;SDS011;47004;51.366;12.348;2023-05-10T09:39:10;6.13;;;4.13;;
18190;SDS011;47004;51.366;12.348;2023-05-10T09:41:16;8.20;;;4.13;;
18190;SDS011;47004;51.366;12.348;2023-05-10T09:43:20;6.90;;;4.70;;
18190;SDS011;47004;51.366;12.348;2023-05-10T09:45:22;6.53;;;4.10;;
18190;SDS011;47004;51.366;12.348;2023-05-10T09:47:27;8.63;;;4.70;;
18190;SDS011;47004;51.366;12.348;2023-05-10T09:49:30;8.90;;;4.77;;
18190;SDS011;47004;51.366;12.348;2023-05-10T09:51:33;8.23;;;4.53;;
18190;SDS011;47004;51.366;12.348;2023-05-10T09:53:36;6.93;;;4.53;;
18190;SDS011;47004;51.366;12.348;2023-05-10T09:55:39;6.83;;;4.70;;
18190;SDS011;47004;51.366;12.348;2023-05-10T09:57:42;7.93;;;4.90;;
18190;SDS011;47004;51.366;12.348;2023-05-10T09:59:46;6.30;;;4.50;;
18190;SDS011;47004;51.366;12.348;2023-05-10T10:01:49;8.37;;;4.50;;
18190;SDS011;47004;51.366;12.348;2023-05-10T10:03:51;6.23;;;4.43;;
18190;SDS011;47004;51.366;12.348;2023-05-10T10:05:57;6.63;;;4.87;;
18190;SDS011;47004;51.366;12.348;2023-05-10T10:08:00;7.17;;;4.63;;
18190;SDS011;47004;51.366;12.348;2023-05-10T10:10:04;7.57;;;4.83;;
18190;SDS011;47004;51.366;12.348;2023-05-10T10:12:11;6.23;;;4.73;;
18190;SDS011;47004;51.366;12.348;2023-05-10T10:14:16;7.03;;;5.13;;
18190;SDS011;47004;51.366;12.348;2023-05-10T10:16:20;8.43;;;5.00;;
18190;SDS011;47004;51.366;12.348;2023-05-10T10:18:23;5.97;;;4.60;;
18190;SDS011;47004;51.366;12.348;2023-05-10T10:20:27;6.00;;;4.47;;
18190;SDS011;47004;51.366;12.348;2023-05-10T10:22:29;6.20;;;4.53;;
18190;SDS011;47004;51.366;12.348;2023-05-10T10:24:31;7.10;;;4.50;;
18190;SDS011;47004;51.366;12.348;2023-05-10T10:26:34;7.33;;;4.70;;
18190;SDS011;47004;51.366;12.348;2023-05-10T10:28:39;6.57;;;4.50;;
18190;SDS011;47004;51.366;12.348;2023-05-10T10:30:48;6.30;;;4.57;;
18190;SDS011;47004;51.366;12.348;2023-05-10T10:33:01;6.10;;;4.87;;
18190;SDS011;47004;51.366;12.348;2023-05-10T10:35:14;5.77;;;4.53;;
18190;SDS011;47004;51.366;12.348;2023-05-10T10:37:17;8.90;;;5.50;;
18190;SDS011;47004;51.366;12.348;2023-05-10T10:39:19;6.97;;;4.63;;
18190;SDS011;47004;51.366;12.348;2023-05-10T10:41:26;6.00;;;4.57;;
18190;SDS011;47004;51.366;12.348;2023-05-10T10:43:29;8.10;;;4.77;;
18190;SDS011;47004;51.366;12.348;2023-05-10T10:45:31;6.70;;;4.57;;
18190;SDS011;47004;51.366;12.348;2023-05-10T10:47:33;7.93;;;4.83;;
18190;SDS011;47004;51.366;12.348;2023-05-10T10:49:42;9.83;;;5.47;;
18190;SDS011;47004;51.366;12.348;2023-05-10T10:54:27;6.57;;;4.47;;
18190;SDS011;47004;51.366;12.348;2023-05-10T10:56:29;7.43;;;5.10;;
18190;SDS011;47004;51.366;12.348;2023-05-10T10:58:31;6.77;;;4.77;;
18190;SDS011;47004;51.366;12.348;2023-05-10T11:00:35;7.30;;;4.70;;
18190;SDS011;47004;51.366;12.348;2023-05-10T11:02:43;7.27;;;5.40;;
18190;SDS011;47004;51.366;12.348;2023-05-10T11:04:50;9.87;;;5.20;;
18190;SDS011;47004;51.366;12.348;2023-05-10T11:06:51;6.73;;;4.83;;
18190;SDS011;47004;51.366;12.348;2023-05-10T11:09:21;6.83;;;5.30;;
18190;SDS011;47004;51.366;12.348;2023-05-10T11:11:26;6.57;;;5.07;;
18190;SDS011;47004;51.366;12.348;2023-05-10T11:13:28;7.23;;;5.57;;
18190;SDS011;47004;51.366;12.348;2023-05-10T11:15:32;8.47;;;4.93;;
18190;SDS011;47004;51.366;12.348;2023-05-10T11:17:34;6.43;;;4.70;;
18190;SDS011;47004;51.366;12.348;2023-05-10T11:19:36;6.67;;;5.07;;
18190;SDS011;47004;51.366;12.348;2023-05-10T11:21:44;6.13;;;4.43;;
18190;SDS011;47004;51.366;12.348;2023-05-10T11:23:49;8.20;;;4.40;;
18190;SDS011;47004;51.366;12.348;2023-05-10T11:25:52;7.90;;;5.00;;
18190;SDS011;47004;51.366;12.348;2023-05-10T11:27:57;6.00;;;4.50;;
18190;SDS011;47004;51.366;12.348;2023-05-10T11:30:04;5.83;;;4.60;;
18190;SDS011;47004;51.366;12.348;2023-05-10T11:32:07;6.93;;;4.63;;
18190;SDS011;47004;51.366;12.348;2023-05-10T11:34:10;6.53;;;4.43;;
18190;SDS011;47004;51.366;12.348;2023-05-10T11:36:14;7.80;;;4.80;;
18190;SDS011;47004;51.366;12.348;2023-05-10T11:38:16;6.17;;;4.37;;
18190;SDS011;47004;51.366;12.348;2023-05-10T11:40:20;6.47;;;4.03;;
18190;SDS011;47004;51.366;12.348;2023-05-10T11:42:24;6.37;;;4.20;;
18190;SDS011;47004;51.366;12.348;2023-05-10T11:44:28;6.67;;;4.77;;
18190;SDS011;47004;51.366;12.348;2023-05-10T11:46:31;7.37;;;4.90;;
18190;SDS011;47004;51.366;12.348;2023-05-10T11:48:33;5.77;;;4.60;;
18190;SDS011;47004;51.366;12.348;2023-05-10T11:50:36;7.73;;;4.80;;
18190;SDS011;47004;51.366;12.348;2023-05-10T11:52:38;7.80;;;5.07;;
18190;SDS011;47004;51.366;12.348;2023-05-10T11:54:44;6.70;;;4.93;;
18190;SDS011;47004;51.366;12.348;2023-05-10T11:56:48;6.70;;;4.80;;
18190;SDS011;47004;51.366;12.348;2023-05-10T11:58:52;6.27;;;4.73;;
18190;SDS011;47004;51.366;12.348;2023-05-10T12:00:55;7.67;;;5.07;;
18190;SDS011;47004;51.366;12.348;2023-05-10T12:02:58;7.20;;;4.67;;
18190;SDS011;47004;51.366;12.348;2023-05-10T12:05:01;6.27;;;4.60;;
18190;SDS011;47004;51.366;12.348;2023-05-10T12:07:04;6.30;;;4.87;;
18190;SDS011;47004;51.366;12.348;2023-05-10T12:09:06;6.63;;;4.97;;
18190;SDS011;47004;51.366;12.348;2023-05-10T12:11:09;6.60;;;5.20;;
18190;SDS011;47004;51.366;12.348;2023-05-10T12:13:13;7.43;;;4.80;;
18190;SDS011;47004;51.366;12.348;2023-05-10T12:15:16;10.83;;;5.17;;
18190;SDS011;47004;51.366;12.348;2023-05-10T12:17:20;6.83;;;4.60;;
18190;SDS011;47004;51.366;12.348;2023-05-10T12:19:22;8.07;;;5.03;;